createdAt,value
2023-02-02T00:00:12.819Z,25.75
2023-02-02T00:08:51.697Z,24.00
2023-02-02T00:17:30.487Z,21.00
2023-02-02T00:20:06.264Z,20.25
2023-02-02T00:22:39.746Z,25.50
2023-02-02T00:25:19.205Z,20.75
2023-02-02T00:28:07.188Z,23.50
2023-02-02T00:30:43.080Z,18.50
2023-02-02T00:33:12.040Z,21.25
2023-02-02T00:35:46.151Z,18.00
2023-02-02T00:38:19.520Z,24.00
2023-02-02T00:40:50.999Z,21.50
2023-02-02T00:43:20.077Z,23.00
2023-02-02T00:45:52.538Z,21.75
2023-02-02T00:48:30.613Z,26.00
2023-02-02T00:51:02.856Z,23.25
2023-02-02T00:53:36.983Z,24.75
2023-02-02T00:56:10.934Z,19.50
2023-02-02T00:58:46.164Z,24.25
2023-02-02T01:01:24.927Z,16.50
2023-02-02T01:03:55.309Z,20.75
2023-02-02T01:06:27.954Z,22.50
2023-02-02T01:09:00.266Z,26.00
2023-02-02T01:11:31.440Z,26.00
2023-02-02T01:14:11.451Z,26.00
2023-02-02T01:16:46.882Z,21.00
2023-02-02T01:19:19.193Z,26.50
2023-02-02T01:21:53.238Z,23.75
2023-02-02T01:24:24.998Z,24.75
2023-02-02T01:26:58.735Z,23.50
2023-02-02T01:29:30.210Z,25.75
2023-02-02T01:32:02.602Z,19.75
2023-02-02T01:34:53.206Z,21.75
2023-02-02T01:37:27.778Z,17.25
2023-02-02T01:40:05.082Z,24.25
2023-02-02T01:45:33.769Z,26.50
2023-02-02T01:48:06.952Z,22.00
2023-02-02T01:50:59.121Z,24.00
2023-02-02T01:53:31.886Z,26.00
2023-02-02T01:56:12.969Z,26.00
2023-02-02T02:01:30.621Z,20.50
2023-02-02T02:04:06.766Z,17.00
2023-02-02T02:06:40.964Z,19.75
2023-02-02T02:09:11.789Z,18.50
2023-02-02T02:11:46.916Z,19.50
2023-02-02T02:14:37.005Z,22.00
2023-02-02T02:21:35.175Z,24.00
2023-02-02T02:25:07.456Z,21.00
2023-02-02T02:28:02.287Z,25.00
2023-02-02T02:34:13.877Z,9.50
2023-02-02T02:36:58.475Z,22.00
2023-02-02T02:39:31.711Z,22.75
2023-02-02T02:42:08.337Z,23.25
2023-02-02T02:44:42.933Z,25.00
2023-02-02T02:47:16.500Z,28.75
2023-02-02T02:49:50.340Z,23.00
2023-02-02T02:55:16.137Z,21.00
2023-02-02T02:58:07.723Z,22.25
2023-02-02T03:01:27.972Z,16.50
2023-02-02T03:04:35.222Z,18.75
2023-02-02T03:07:14.163Z,23.50
2023-02-02T03:09:48.131Z,15.50
2023-02-02T03:12:29.933Z,27.25
2023-02-02T03:15:10.900Z,25.75
2023-02-02T03:20:51.568Z,23.00
2023-02-02T03:23:26.730Z,19.25
2023-02-02T03:26:02.417Z,19.75
2023-02-02T03:28:39.421Z,15.25
2023-02-02T03:31:19.329Z,21.25
2023-02-02T03:34:02.602Z,21.25
2023-02-02T03:36:35.591Z,11.00
2023-02-02T03:39:06.603Z,18.50
2023-02-02T03:41:50.885Z,26.00
2023-02-02T03:44:32.571Z,12.00
2023-02-02T03:47:09.920Z,18.50
2023-02-02T03:49:40.230Z,24.00
2023-02-02T03:52:15.467Z,21.00
2023-02-02T03:54:47.604Z,24.25
2023-02-02T03:57:20.069Z,19.75
2023-02-02T03:59:51.792Z,21.00
2023-02-02T04:05:09.122Z,24.50
2023-02-02T04:07:43.708Z,21.50
2023-02-02T04:10:14.666Z,16.75
2023-02-02T04:12:48.273Z,20.25
2023-02-02T04:15:19.370Z,22.50
2023-02-02T04:17:49.523Z,20.00
2023-02-02T04:20:18.121Z,20.25
2023-02-02T04:22:52.423Z,22.50
2023-02-02T04:25:22.360Z,23.50
2023-02-02T04:27:51.360Z,11.25
2023-02-02T04:30:25.695Z,26.00
2023-02-02T04:32:56.620Z,23.00
2023-02-02T04:35:27.150Z,21.50
2023-02-02T04:37:58.277Z,23.25
2023-02-02T04:40:28.044Z,25.75
2023-02-02T04:43:02.712Z,25.50
2023-02-02T04:45:36.913Z,18.75
2023-02-02T04:48:07.121Z,26.00
2023-02-02T04:50:38.232Z,24.50
2023-02-02T04:53:08.577Z,17.25
2023-02-02T04:55:43.657Z,26.00
2023-02-02T04:58:16.800Z,22.25
2023-02-02T05:00:49.654Z,25.75
2023-02-02T05:03:20.221Z,22.50
2023-02-02T05:05:51.749Z,18.00
2023-02-02T05:08:22.297Z,19.75
2023-02-02T05:10:51.151Z,26.00
2023-02-02T05:13:21.999Z,21.50
2023-02-02T05:15:51.951Z,22.50
2023-02-02T05:21:03.373Z,19.25
2023-02-02T05:23:34.091Z,26.00
2023-02-02T05:26:05.659Z,21.75
2023-02-02T05:28:43.675Z,27.50
2023-02-02T05:31:23.778Z,24.25
2023-02-02T05:33:57.295Z,22.00
2023-02-02T05:36:28.943Z,26.00
2023-02-02T05:41:58.774Z,25.50
2023-02-02T05:44:31.504Z,20.75
2023-02-02T05:49:46.735Z,21.25
2023-02-02T05:52:20.925Z,21.25
2023-02-02T06:00:29.859Z,22.00
2023-02-02T06:07:42.687Z,23.25
2023-02-02T06:34:26.661Z,18.75
2023-02-02T06:37:19.304Z,22.50
2023-02-02T06:43:07.931Z,10.00
2023-02-02T10:51:36.284Z,21.25
2023-02-02T10:54:17.552Z,16.25
2023-02-02T10:56:55.098Z,16.25
2023-02-02T10:59:44.795Z,16.00
2023-02-02T11:02:21.027Z,20.00
2023-02-02T11:05:09.104Z,14.50
2023-02-02T11:07:39.334Z,19.75
2023-02-02T11:10:08.215Z,16.50
2023-02-02T11:12:46.300Z,18.75
2023-02-02T11:15:34.236Z,23.00
2023-02-02T11:18:36.397Z,13.25
2023-02-02T11:21:24.255Z,16.75
2023-02-02T11:23:59.844Z,19.75
2023-02-02T11:26:56.105Z,18.25
2023-02-02T11:29:33.071Z,13.25
2023-02-02T11:35:25.279Z,16.25
2023-02-02T11:41:15.873Z,18.00
2023-02-02T11:43:55.888Z,13.50
2023-02-02T11:46:31.502Z,20.00
2023-02-02T11:49:08.641Z,19.75
2023-02-02T11:51:37.377Z,18.25
2023-02-02T11:54:34.968Z,16.25
2023-02-02T11:57:30.690Z,15.50
2023-02-02T12:00:11.446Z,21.25
2023-02-02T12:02:51.088Z,17.00
2023-02-02T12:05:27.133Z,14.00
2023-02-02T12:07:57.045Z,15.50
2023-02-02T12:17:07.999Z,14.75
2023-02-02T12:20:31.905Z,11.50
2023-02-02T12:23:58.265Z,12.50
2023-02-02T12:26:48.538Z,11.00
2023-02-02T12:29:34.337Z,16.75
2023-02-02T12:32:39.767Z,12.75
2023-02-02T12:53:30.219Z,10.25
2023-02-02T12:56:35.417Z,15.50
2023-02-02T12:59:53.893Z,13.25
2023-02-02T13:02:38.253Z,19.25
2023-02-02T13:08:27.843Z,21.75
2023-02-02T13:11:04.606Z,17.50
2023-02-02T13:13:40.789Z,17.00
2023-02-02T13:16:19.418Z,17.50
2023-02-02T13:19:08.519Z,15.75
2023-02-02T13:21:39.747Z,13.50
2023-02-02T13:24:28.867Z,16.00
2023-02-02T13:27:00.586Z,16.00
2023-02-02T13:29:55.896Z,14.00
2023-02-02T13:32:39.860Z,16.00
2023-02-02T13:51:42.203Z,15.00
2023-02-02T14:04:40.043Z,10.25
2023-02-02T14:14:36.403Z,9.25
2023-02-02T14:17:23.016Z,11.75
2023-02-02T14:19:55.316Z,12.00
2023-02-02T14:22:43.445Z,15.50
2023-02-02T14:25:33.745Z,13.25
2023-02-02T14:28:11.579Z,3.00
2023-02-02T14:30:41.039Z,8.25
2023-02-02T14:33:27.311Z,11.50
2023-02-02T14:36:01.766Z,13.50
2023-02-02T14:39:04.637Z,11.50
2023-02-02T14:42:24.405Z,14.75
2023-02-02T14:51:25.629Z,11.00
2023-02-02T14:54:03.260Z,16.25
2023-02-02T15:03:45.714Z,12.75
2023-02-02T15:15:36.301Z,14.25
2023-02-02T15:18:34.092Z,17.25
2023-02-02T15:21:08.501Z,16.00
2023-02-02T15:23:46.374Z,16.75
2023-02-02T15:26:28.374Z,14.50
2023-02-02T15:29:08.414Z,12.25
2023-02-02T15:31:44.417Z,12.25
2023-02-02T15:34:25.265Z,10.00
2023-02-02T15:37:07.276Z,13.00
2023-02-02T15:39:56.684Z,10.75
2023-02-02T15:42:53.527Z,12.75
2023-02-02T15:45:48.421Z,14.75
2023-02-02T16:36:41.959Z,32.25
2023-02-02T16:51:38.574Z,15.00
2023-02-02T17:31:04.220Z,23.00
2023-02-02T17:33:40.916Z,13.25
2023-02-02T17:36:13.738Z,20.25
2023-02-02T17:38:42.290Z,18.50
2023-02-02T17:41:13.107Z,20.25
2023-02-02T17:43:43.168Z,18.25
2023-02-02T17:46:14.034Z,16.75
2023-02-02T17:48:44.525Z,15.00
2023-02-02T17:51:17.119Z,17.50
2023-02-02T17:53:46.343Z,15.50
2023-02-02T17:56:15.267Z,15.25
2023-02-02T17:58:44.068Z,15.00
2023-02-02T18:01:14.425Z,13.25
2023-02-02T18:03:49.323Z,12.50
2023-02-02T18:06:17.231Z,12.75
2023-02-02T18:08:46.063Z,16.25
2023-02-02T18:11:18.983Z,15.25
2023-02-02T18:13:47.934Z,10.50
2023-02-02T18:16:16.258Z,14.75
2023-02-02T18:18:47.035Z,14.50
2023-02-02T18:21:15.005Z,12.00
2023-02-02T18:23:57.488Z,13.50
2023-02-02T18:26:32.862Z,14.25
2023-02-02T18:29:01.362Z,12.50
2023-02-02T18:31:29.841Z,0.00
2023-02-02T18:34:03.842Z,15.00
2023-02-02T18:36:32.347Z,12.25
2023-02-02T18:39:00.125Z,13.00
2023-02-02T18:41:28.770Z,13.25
2023-02-02T18:43:57.374Z,8.00
2023-02-02T18:46:27.044Z,11.25
2023-02-02T18:52:02.594Z,12.25
2023-02-02T18:54:48.342Z,15.50
2023-02-02T18:57:19.975Z,13.00
2023-02-02T19:02:48.194Z,3.50
2023-02-02T19:17:16.831Z,16.25
2023-02-02T19:19:47.810Z,25.00
2023-02-02T19:22:25.689Z,15.00
2023-02-02T19:24:56.266Z,12.50
2023-02-02T19:27:27.451Z,17.50
2023-02-02T19:30:06.175Z,11.25
2023-02-02T19:32:35.663Z,8.00
2023-02-02T19:35:07.968Z,6.25
2023-02-02T19:37:43.517Z,7.75
2023-02-02T19:40:20.290Z,9.75
2023-02-02T19:43:15.993Z,11.00
2023-02-02T19:45:45.343Z,7.00
2023-02-02T19:48:23.690Z,6.00
2023-02-02T19:50:59.202Z,6.25
2023-02-02T19:53:38.594Z,7.50
2023-02-02T19:56:35.746Z,7.50
2023-02-02T19:59:10.628Z,6.00
2023-02-02T20:01:40.324Z,8.75
2023-02-02T20:04:16.135Z,6.00
2023-02-02T20:16:03.624Z,7.00
2023-02-02T20:34:26.763Z,9.75
2023-02-02T20:37:23.315Z,10.50
2023-02-02T20:40:13.415Z,13.50
2023-02-02T20:42:42.234Z,10.50
2023-02-02T20:45:10.034Z,11.25
2023-02-02T20:47:38.503Z,12.25
2023-02-02T20:50:07.512Z,15.00
2023-02-02T20:52:36.482Z,12.00
2023-02-02T20:55:05.661Z,11.00
2023-02-02T20:57:33.727Z,9.00
2023-02-02T21:00:01.855Z,7.00
2023-02-02T21:02:30.756Z,5.50
2023-02-02T21:04:59.067Z,7.25
2023-02-02T21:07:27.852Z,6.00
2023-02-02T21:09:56.492Z,8.25
2023-02-02T21:12:26.575Z,5.75
2023-02-02T21:15:01.889Z,5.75
2023-02-02T21:17:32.087Z,6.75
2023-02-02T21:20:00.895Z,6.25
2023-02-02T21:31:48.770Z,8.50
2023-02-02T21:34:31.734Z,7.75
2023-02-02T21:37:00.960Z,7.75
2023-02-02T21:42:38.051Z,10.00
2023-02-02T21:45:28.967Z,6.25
2023-02-02T21:48:01.440Z,3.50
2023-02-02T21:50:36.093Z,6.75
2023-02-02T21:53:17.583Z,5.50
2023-02-02T21:59:00.712Z,5.75
2023-02-02T22:04:40.712Z,7.00
2023-02-02T22:07:14.992Z,7.00
2023-02-02T22:12:34.321Z,7.25
2023-02-02T22:18:19.038Z,5.75
2023-02-02T22:26:42.735Z,8.50
2023-02-02T22:29:21.607Z,5.00
2023-02-02T22:31:54.067Z,6.50
2023-02-02T22:34:23.374Z,4.00
2023-02-02T22:39:50.520Z,6.75
2023-02-02T22:42:19.137Z,6.00
2023-02-02T22:44:46.925Z,5.75
2023-02-02T22:47:15.640Z,6.25
2023-02-02T22:49:50.653Z,5.25
2023-02-02T22:55:22.324Z,8.00
2023-02-02T22:57:51.109Z,7.00
2023-02-02T23:00:26.823Z,6.50
2023-02-02T23:02:57.148Z,5.75
2023-02-02T23:05:28.189Z,6.50
2023-02-02T23:07:56.704Z,7.00
2023-02-02T23:10:27.865Z,6.00
2023-02-02T23:12:58.937Z,6.00
2023-02-02T23:15:27.404Z,6.75
2023-02-02T23:17:55.369Z,6.00
2023-02-02T23:20:24.561Z,6.00
2023-02-02T23:22:52.721Z,8.00
2023-02-02T23:25:20.649Z,9.00
2023-02-02T23:27:49.487Z,9.25
2023-02-02T23:30:20.727Z,6.25
2023-02-02T23:32:49.316Z,8.00
2023-02-02T23:35:17.563Z,8.50
2023-02-02T23:37:45.967Z,10.00
2023-02-02T23:40:13.838Z,8.75
2023-02-02T23:42:41.575Z,5.75
2023-02-02T23:45:11.543Z,8.25
2023-02-02T23:47:39.708Z,3.25
2023-02-02T23:50:09.946Z,4.50
2023-02-02T23:52:39.838Z,9.50
2023-02-02T23:55:08.162Z,9.00
2023-02-02T23:57:37.117Z,10.00
